sensor_id;sensor_type;location;lat;lon;timestamp;P1;durP1;ratioP1;P2;durP2;ratioP2
7661;SDS011;30314;48.184;11.510;2022-11-15T00:02:00;11.60;;;6.50;;
7661;SDS011;30314;48.184;11.510;2022-11-15T00:04:49;11.33;;;5.63;;
7661;SDS011;30314;48.184;11.510;2022-11-15T00:07:35;8.00;;;5.47;;
7661;SDS011;30314;48.184;11.510;2022-11-15T00:10:40;10.93;;;5.17;;
7661;SDS011;30314;48.184;11.510;2022-11-15T00:13:28;10.87;;;6.33;;
7661;SDS011;30314;48.184;11.510;2022-11-15T00:16:15;8.47;;;5.37;;
7661;SDS011;30314;48.184;11.510;2022-11-15T00:19:02;10.00;;;4.77;;
7661;SDS011;30314;48.184;11.510;2022-11-15T00:21:48;8.30;;;5.20;;
7661;SDS011;30314;48.184;11.510;2022-11-15T00:24:34;8.90;;;5.37;;
7661;SDS011;30314;48.184;11.510;2022-11-15T00:27:21;11.97;;;5.80;;
7661;SDS011;30314;48.184;11.510;2022-11-15T00:30:09;7.13;;;4.77;;
7661;SDS011;30314;48.184;11.510;2022-11-15T00:32:56;7.93;;;5.33;;
7661;SDS011;30314;48.184;11.510;2022-11-15T00:35:43;10.40;;;5.37;;
7661;SDS011;30314;48.184;11.510;2022-11-15T00:38:30;11.00;;;5.60;;
7661;SDS011;30314;48.184;11.510;2022-11-15T00:41:17;8.77;;;5.00;;
7661;SDS011;30314;48.184;11.510;2022-11-15T00:44:03;9.10;;;5.50;;
7661;SDS011;30314;48.184;11.510;2022-11-15T00:46:51;11.03;;;5.80;;
7661;SDS011;30314;48.184;11.510;2022-11-15T00:49:38;7.93;;;4.90;;
7661;SDS011;30314;48.184;11.510;2022-11-15T00:52:25;9.83;;;5.80;;
7661;SDS011;30314;48.184;11.510;2022-11-15T00:55:13;9.87;;;4.63;;
7661;SDS011;30314;48.184;11.510;2022-11-15T00:58:00;7.90;;;4.83;;
7661;SDS011;30314;48.184;11.510;2022-11-15T01:00:46;6.20;;;4.60;;
7661;SDS011;30314;48.184;11.510;2022-11-15T01:03:34;7.77;;;5.17;;
7661;SDS011;30314;48.184;11.510;2022-11-15T01:06:21;8.83;;;5.33;;
7661;SDS011;30314;48.184;11.510;2022-11-15T01:09:07;12.23;;;5.00;;
7661;SDS011;30314;48.184;11.510;2022-11-15T01:11:53;6.80;;;4.23;;
7661;SDS011;30314;48.184;11.510;2022-11-15T01:14:39;9.63;;;5.00;;
7661;SDS011;30314;48.184;11.510;2022-11-15T01:17:25;9.20;;;5.07;;
7661;SDS011;30314;48.184;11.510;2022-11-15T01:20:13;7.27;;;4.73;;
7661;SDS011;30314;48.184;11.510;2022-11-15T01:22:59;12.40;;;4.90;;
7661;SDS011;30314;48.184;11.510;2022-11-15T01:25:45;6.20;;;4.20;;
7661;SDS011;30314;48.184;11.510;2022-11-15T01:28:31;8.53;;;5.10;;
7661;SDS011;30314;48.184;11.510;2022-11-15T01:31:19;7.27;;;4.20;;
7661;SDS011;30314;48.184;11.510;2022-11-15T01:34:06;6.50;;;4.17;;
7661;SDS011;30314;48.184;11.510;2022-11-15T01:36:54;7.33;;;4.73;;
7661;SDS011;30314;48.184;11.510;2022-11-15T01:39:40;8.43;;;5.00;;
7661;SDS011;30314;48.184;11.510;2022-11-15T01:42:26;8.20;;;4.83;;
7661;SDS011;30314;48.184;11.510;2022-11-15T01:45:13;7.27;;;4.00;;
7661;SDS011;30314;48.184;11.510;2022-11-15T01:48:01;12.57;;;4.60;;
7661;SDS011;30314;48.184;11.510;2022-11-15T01:50:47;8.77;;;3.67;;
7661;SDS011;30314;48.184;11.510;2022-11-15T01:53:37;6.53;;;3.80;;
7661;SDS011;30314;48.184;11.510;2022-11-15T01:56:28;11.83;;;4.30;;
7661;SDS011;30314;48.184;11.510;2022-11-15T01:59:18;5.97;;;3.87;;
7661;SDS011;30314;48.184;11.510;2022-11-15T02:02:05;7.40;;;3.77;;
7661;SDS011;30314;48.184;11.510;2022-11-15T02:04:52;8.50;;;4.30;;
7661;SDS011;30314;48.184;11.510;2022-11-15T02:07:38;8.67;;;3.87;;
7661;SDS011;30314;48.184;11.510;2022-11-15T02:10:27;6.33;;;4.27;;
7661;SDS011;30314;48.184;11.510;2022-11-15T02:13:14;9.57;;;4.00;;
7661;SDS011;30314;48.184;11.510;2022-11-15T02:16:03;6.70;;;3.73;;
7661;SDS011;30314;48.184;11.510;2022-11-15T02:18:59;7.07;;;4.00;;
7661;SDS011;30314;48.184;11.510;2022-11-15T02:21:57;5.67;;;3.63;;
7661;SDS011;30314;48.184;11.510;2022-11-15T02:25:08;7.70;;;3.87;;
7661;SDS011;30314;48.184;11.510;2022-11-15T02:28:18;5.40;;;3.77;;
7661;SDS011;30314;48.184;11.510;2022-11-15T02:31:19;5.23;;;3.83;;
7661;SDS011;30314;48.184;11.510;2022-11-15T02:34:13;5.73;;;3.20;;
7661;SDS011;30314;48.184;11.510;2022-11-15T02:37:11;10.73;;;4.37;;
7661;SDS011;30314;48.184;11.510;2022-11-15T02:40:05;8.83;;;4.53;;
7661;SDS011;30314;48.184;11.510;2022-11-15T02:43:00;6.67;;;4.50;;
7661;SDS011;30314;48.184;11.510;2022-11-15T02:46:12;9.10;;;3.67;;
7661;SDS011;30314;48.184;11.510;2022-11-15T02:49:06;9.60;;;4.70;;
7661;SDS011;30314;48.184;11.510;2022-11-15T02:51:52;10.63;;;4.57;;
7661;SDS011;30314;48.184;11.510;2022-11-15T02:54:41;7.63;;;4.10;;
7661;SDS011;30314;48.184;11.510;2022-11-15T02:57:31;6.30;;;3.53;;
7661;SDS011;30314;48.184;11.510;2022-11-15T03:00:30;6.53;;;4.57;;
7661;SDS011;30314;48.184;11.510;2022-11-15T03:03:30;11.10;;;4.00;;
7661;SDS011;30314;48.184;11.510;2022-11-15T03:06:32;7.80;;;3.83;;
7661;SDS011;30314;48.184;11.510;2022-11-15T03:09:28;9.13;;;4.83;;
7661;SDS011;30314;48.184;11.510;2022-11-15T03:12:21;7.77;;;4.33;;
7661;SDS011;30314;48.184;11.510;2022-11-15T03:15:15;6.70;;;4.10;;
7661;SDS011;30314;48.184;11.510;2022-11-15T03:18:06;6.23;;;4.23;;
7661;SDS011;30314;48.184;11.510;2022-11-15T03:21:02;5.67;;;4.00;;
7661;SDS011;30314;48.184;11.510;2022-11-15T03:23:54;8.13;;;4.47;;
7661;SDS011;30314;48.184;11.510;2022-11-15T03:26:44;6.97;;;4.13;;
7661;SDS011;30314;48.184;11.510;2022-11-15T03:29:33;5.80;;;3.40;;
7661;SDS011;30314;48.184;11.510;2022-11-15T03:32:25;7.63;;;3.83;;
7661;SDS011;30314;48.184;11.510;2022-11-15T03:35:14;6.57;;;3.90;;
7661;SDS011;30314;48.184;11.510;2022-11-15T03:38:05;6.87;;;3.83;;
7661;SDS011;30314;48.184;11.510;2022-11-15T03:41:00;8.10;;;3.40;;
7661;SDS011;30314;48.184;11.510;2022-11-15T03:43:51;9.27;;;3.90;;
7661;SDS011;30314;48.184;11.510;2022-11-15T03:46:43;6.23;;;3.80;;
7661;SDS011;30314;48.184;11.510;2022-11-15T03:49:33;5.03;;;3.47;;
7661;SDS011;30314;48.184;11.510;2022-11-15T03:52:22;5.57;;;3.10;;
7661;SDS011;30314;48.184;11.510;2022-11-15T03:55:10;7.70;;;4.33;;
7661;SDS011;30314;48.184;11.510;2022-11-15T03:58:00;5.87;;;3.67;;
7661;SDS011;30314;48.184;11.510;2022-11-15T04:00:47;6.33;;;4.00;;
7661;SDS011;30314;48.184;11.510;2022-11-15T04:03:34;5.63;;;3.47;;
7661;SDS011;30314;48.184;11.510;2022-11-15T04:06:20;6.17;;;3.40;;
7661;SDS011;30314;48.184;11.510;2022-11-15T04:09:06;6.97;;;4.43;;
7661;SDS011;30314;48.184;11.510;2022-11-15T04:11:53;6.30;;;3.87;;
7661;SDS011;30314;48.184;11.510;2022-11-15T04:14:41;5.80;;;3.77;;
7661;SDS011;30314;48.184;11.510;2022-11-15T04:17:49;6.83;;;4.20;;
7661;SDS011;30314;48.184;11.510;2022-11-15T04:20:36;7.00;;;4.10;;
7661;SDS011;30314;48.184;11.510;2022-11-15T04:23:40;6.80;;;3.80;;
7661;SDS011;30314;48.184;11.510;2022-11-15T04:26:44;4.40;;;3.10;;
7661;SDS011;30314;48.184;11.510;2022-11-15T04:29:30;4.37;;;3.00;;
7661;SDS011;30314;48.184;11.510;2022-11-15T04:32:23;5.03;;;3.00;;
7661;SDS011;30314;48.184;11.510;2022-11-15T04:35:09;5.20;;;3.40;;
7661;SDS011;30314;48.184;11.510;2022-11-15T04:37:57;13.17;;;4.77;;
7661;SDS011;30314;48.184;11.510;2022-11-15T04:40:44;6.73;;;4.10;;
7661;SDS011;30314;48.184;11.510;2022-11-15T04:43:30;6.80;;;4.37;;
7661;SDS011;30314;48.184;11.510;2022-11-15T04:46:17;8.40;;;4.20;;
7661;SDS011;30314;48.184;11.510;2022-11-15T04:49:05;5.63;;;3.57;;
7661;SDS011;30314;48.184;11.510;2022-11-15T04:51:51;19.13;;;4.30;;
7661;SDS011;30314;48.184;11.510;2022-11-15T04:54:37;5.13;;;2.97;;
7661;SDS011;30314;48.184;11.510;2022-11-15T04:57:23;6.90;;;3.87;;
7661;SDS011;30314;48.184;11.510;2022-11-15T05:00:11;8.40;;;4.53;;
7661;SDS011;30314;48.184;11.510;2022-11-15T05:02:58;7.80;;;4.43;;
7661;SDS011;30314;48.184;11.510;2022-11-15T05:06:04;10.53;;;4.50;;
7661;SDS011;30314;48.184;11.510;2022-11-15T05:08:51;7.47;;;3.80;;
7661;SDS011;30314;48.184;11.510;2022-11-15T05:11:37;4.90;;;3.23;;
7661;SDS011;30314;48.184;11.510;2022-11-15T05:14:24;7.70;;;4.10;;
7661;SDS011;30314;48.184;11.510;2022-11-15T05:17:10;7.40;;;3.93;;
7661;SDS011;30314;48.184;11.510;2022-11-15T05:19:56;6.03;;;3.30;;
7661;SDS011;30314;48.184;11.510;2022-11-15T05:22:44;5.03;;;3.40;;
7661;SDS011;30314;48.184;11.510;2022-11-15T05:25:30;9.97;;;3.97;;
7661;SDS011;30314;48.184;11.510;2022-11-15T05:28:17;8.20;;;3.90;;
7661;SDS011;30314;48.184;11.510;2022-11-15T05:31:03;7.50;;;4.30;;
7661;SDS011;30314;48.184;11.510;2022-11-15T05:33:51;10.67;;;4.67;;
7661;SDS011;30314;48.184;11.510;2022-11-15T05:36:41;6.50;;;3.43;;
7661;SDS011;30314;48.184;11.510;2022-11-15T05:39:30;7.90;;;3.97;;
7661;SDS011;30314;48.184;11.510;2022-11-15T05:42:16;21.33;;;4.03;;
7661;SDS011;30314;48.184;11.510;2022-11-15T05:45:04;9.80;;;4.13;;
7661;SDS011;30314;48.184;11.510;2022-11-15T05:47:52;10.00;;;4.30;;
7661;SDS011;30314;48.184;11.510;2022-11-15T05:50:43;7.00;;;4.10;;
7661;SDS011;30314;48.184;11.510;2022-11-15T05:53:32;8.50;;;5.17;;
7661;SDS011;30314;48.184;11.510;2022-11-15T05:56:20;9.07;;;4.20;;
7661;SDS011;30314;48.184;11.510;2022-11-15T05:59:06;8.03;;;4.77;;
7661;SDS011;30314;48.184;11.510;2022-11-15T06:01:54;5.67;;;3.77;;
7661;SDS011;30314;48.184;11.510;2022-11-15T06:04:40;9.80;;;4.63;;
7661;SDS011;30314;48.184;11.510;2022-11-15T06:07:28;6.23;;;4.13;;
7661;SDS011;30314;48.184;11.510;2022-11-15T06:10:15;7.00;;;3.83;;
7661;SDS011;30314;48.184;11.510;2022-11-15T06:13:03;8.60;;;4.70;;
7661;SDS011;30314;48.184;11.510;2022-11-15T06:15:50;9.40;;;4.20;;
7661;SDS011;30314;48.184;11.510;2022-11-15T06:18:36;7.63;;;3.90;;
7661;SDS011;30314;48.184;11.510;2022-11-15T06:21:23;8.93;;;4.73;;
7661;SDS011;30314;48.184;11.510;2022-11-15T06:24:12;7.63;;;4.00;;
7661;SDS011;30314;48.184;11.510;2022-11-15T06:26:58;12.60;;;4.77;;
7661;SDS011;30314;48.184;11.510;2022-11-15T06:29:46;11.50;;;4.20;;
7661;SDS011;30314;48.184;11.510;2022-11-15T06:32:32;9.27;;;4.50;;
7661;SDS011;30314;48.184;11.510;2022-11-15T06:35:19;7.53;;;4.07;;
7661;SDS011;30314;48.184;11.510;2022-11-15T06:38:06;7.33;;;4.20;;
7661;SDS011;30314;48.184;11.510;2022-11-15T06:40:54;8.40;;;4.23;;
7661;SDS011;30314;48.184;11.510;2022-11-15T06:43:40;5.60;;;3.23;;
7661;SDS011;30314;48.184;11.510;2022-11-15T06:46:28;9.90;;;4.17;;
7661;SDS011;30314;48.184;11.510;2022-11-15T06:49:14;5.70;;;3.67;;
7661;SDS011;30314;48.184;11.510;2022-11-15T06:52:01;8.67;;;4.80;;
7661;SDS011;30314;48.184;11.510;2022-11-15T06:54:47;8.63;;;4.10;;
7661;SDS011;30314;48.184;11.510;2022-11-15T06:57:34;6.30;;;4.10;;
7661;SDS011;30314;48.184;11.510;2022-11-15T07:00:20;8.57;;;4.73;;
7661;SDS011;30314;48.184;11.510;2022-11-15T07:03:09;9.07;;;4.10;;
7661;SDS011;30314;48.184;11.510;2022-11-15T07:05:56;6.27;;;4.20;;
7661;SDS011;30314;48.184;11.510;2022-11-15T07:08:50;11.27;;;4.37;;
7661;SDS011;30314;48.184;11.510;2022-11-15T07:11:37;9.27;;;4.73;;
7661;SDS011;30314;48.184;11.510;2022-11-15T07:14:23;10.87;;;5.10;;
7661;SDS011;30314;48.184;11.510;2022-11-15T07:17:09;11.70;;;5.10;;
7661;SDS011;30314;48.184;11.510;2022-11-15T07:19:56;7.50;;;4.40;;
7661;SDS011;30314;48.184;11.510;2022-11-15T07:22:43;10.83;;;4.40;;
7661;SDS011;30314;48.184;11.510;2022-11-15T07:25:30;11.57;;;5.10;;
7661;SDS011;30314;48.184;11.510;2022-11-15T07:28:16;10.50;;;4.83;;
7661;SDS011;30314;48.184;11.510;2022-11-15T07:31:03;14.00;;;4.80;;
7661;SDS011;30314;48.184;11.510;2022-11-15T07:33:51;10.67;;;5.00;;
7661;SDS011;30314;48.184;11.510;2022-11-15T07:36:38;10.67;;;5.00;;
7661;SDS011;30314;48.184;11.510;2022-11-15T07:39:24;11.17;;;4.87;;
7661;SDS011;30314;48.184;11.510;2022-11-15T07:42:11;12.30;;;4.57;;
7661;SDS011;30314;48.184;11.510;2022-11-15T07:45:15;10.93;;;4.60;;
7661;SDS011;30314;48.184;11.510;2022-11-15T07:48:01;8.93;;;5.30;;
7661;SDS011;30314;48.184;11.510;2022-11-15T07:50:47;15.30;;;5.70;;
7661;SDS011;30314;48.184;11.510;2022-11-15T07:53:35;11.70;;;4.70;;
7661;SDS011;30314;48.184;11.510;2022-11-15T07:56:21;10.53;;;4.17;;
7661;SDS011;30314;48.184;11.510;2022-11-15T07:59:07;7.10;;;4.23;;
7661;SDS011;30314;48.184;11.510;2022-11-15T08:01:53;7.47;;;4.57;;
7661;SDS011;30314;48.184;11.510;2022-11-15T08:04:39;11.40;;;4.70;;
7661;SDS011;30314;48.184;11.510;2022-11-15T08:07:28;12.63;;;4.47;;
7661;SDS011;30314;48.184;11.510;2022-11-15T08:10:16;8.67;;;3.93;;
7661;SDS011;30314;48.184;11.510;2022-11-15T08:13:05;8.47;;;4.10;;
7661;SDS011;30314;48.184;11.510;2022-11-15T08:15:56;8.23;;;4.17;;
7661;SDS011;30314;48.184;11.510;2022-11-15T08:18:43;19.90;;;4.63;;
7661;SDS011;30314;48.184;11.510;2022-11-15T08:21:30;10.10;;;4.50;;
7661;SDS011;30314;48.184;11.510;2022-11-15T08:24:16;7.27;;;4.00;;
7661;SDS011;30314;48.184;11.510;2022-11-15T08:27:03;12.43;;;4.30;;
7661;SDS011;30314;48.184;11.510;2022-11-15T08:29:50;9.10;;;4.50;;
7661;SDS011;30314;48.184;11.510;2022-11-15T08:32:43;8.43;;;4.20;;
7661;SDS011;30314;48.184;11.510;2022-11-15T08:35:29;5.73;;;3.40;;
7661;SDS011;30314;48.184;11.510;2022-11-15T08:38:15;7.17;;;4.50;;
7661;SDS011;30314;48.184;11.510;2022-11-15T08:41:02;7.00;;;3.30;;
7661;SDS011;30314;48.184;11.510;2022-11-15T08:43:52;9.77;;;4.77;;
7661;SDS011;30314;48.184;11.510;2022-11-15T08:46:38;7.63;;;4.70;;
7661;SDS011;30314;48.184;11.510;2022-11-15T08:49:24;9.63;;;5.73;;
7661;SDS011;30314;48.184;11.510;2022-11-15T08:52:10;9.20;;;5.30;;
7661;SDS011;30314;48.184;11.510;2022-11-15T08:54:56;9.70;;;5.50;;
7661;SDS011;30314;48.184;11.510;2022-11-15T08:57:42;15.60;;;6.90;;
7661;SDS011;30314;48.184;11.510;2022-11-15T09:00:29;14.17;;;6.47;;
7661;SDS011;30314;48.184;11.510;2022-11-15T09:03:16;13.10;;;6.00;;
7661;SDS011;30314;48.184;11.510;2022-11-15T09:06:02;13.27;;;6.90;;
7661;SDS011;30314;48.184;11.510;2022-11-15T09:08:49;7.20;;;4.83;;
7661;SDS011;30314;48.184;11.510;2022-11-15T09:11:35;10.73;;;6.10;;
7661;SDS011;30314;48.184;11.510;2022-11-15T09:14:21;8.47;;;5.60;;
7661;SDS011;30314;48.184;11.510;2022-11-15T09:17:09;13.13;;;5.87;;
7661;SDS011;30314;48.184;11.510;2022-11-15T09:19:55;11.20;;;5.70;;
7661;SDS011;30314;48.184;11.510;2022-11-15T09:22:41;11.00;;;5.43;;
7661;SDS011;30314;48.184;11.510;2022-11-15T09:25:27;12.00;;;6.10;;
7661;SDS011;30314;48.184;11.510;2022-11-15T09:28:14;12.33;;;6.10;;
7661;SDS011;30314;48.184;11.510;2022-11-15T09:31:02;15.67;;;5.90;;
7661;SDS011;30314;48.184;11.510;2022-11-15T09:33:51;9.97;;;5.27;;
7661;SDS011;30314;48.184;11.510;2022-11-15T09:36:38;12.03;;;5.00;;
7661;SDS011;30314;48.184;11.510;2022-11-15T09:39:24;8.30;;;4.87;;
7661;SDS011;30314;48.184;11.510;2022-11-15T09:45:18;7.60;;;4.47;;
7661;SDS011;30314;48.184;11.510;2022-11-15T09:48:13;11.70;;;4.87;;
7661;SDS011;30314;48.184;11.510;2022-11-15T09:51:24;6.90;;;3.67;;
7661;SDS011;30314;48.184;11.510;2022-11-15T09:53:57;13.70;;;4.57;;
7661;SDS011;30314;48.184;11.510;2022-11-15T09:56:50;6.97;;;3.80;;
7661;SDS011;30314;48.184;11.510;2022-11-15T09:59:27;14.13;;;5.43;;
7661;SDS011;30314;48.184;11.510;2022-11-15T10:02:10;4.70;;;3.47;;
7661;SDS011;30314;48.184;11.510;2022-11-15T10:04:49;7.67;;;3.10;;
7661;SDS011;30314;48.184;11.510;2022-11-15T10:07:20;5.03;;;2.77;;
7661;SDS011;30314;48.184;11.510;2022-11-15T10:09:54;6.37;;;2.47;;
7661;SDS011;30314;48.184;11.510;2022-11-15T10:12:28;4.90;;;2.70;;
7661;SDS011;30314;48.184;11.510;2022-11-15T10:14:58;5.50;;;2.53;;
7661;SDS011;30314;48.184;11.510;2022-11-15T10:17:42;5.20;;;2.70;;
7661;SDS011;30314;48.184;11.510;2022-11-15T10:20:26;3.87;;;2.50;;
7661;SDS011;30314;48.184;11.510;2022-11-15T10:22:59;4.30;;;2.50;;
7661;SDS011;30314;48.184;11.510;2022-11-15T10:25:29;5.30;;;2.40;;
7661;SDS011;30314;48.184;11.510;2022-11-15T10:27:59;3.47;;;2.37;;
7661;SDS011;30314;48.184;11.510;2022-11-15T10:30:33;3.67;;;2.33;;
7661;SDS011;30314;48.184;11.510;2022-11-15T10:33:10;5.17;;;2.13;;
7661;SDS011;30314;48.184;11.510;2022-11-15T10:35:42;5.40;;;2.10;;
7661;SDS011;30314;48.184;11.510;2022-11-15T10:38:11;3.23;;;1.70;;
7661;SDS011;30314;48.184;11.510;2022-11-15T10:40:39;4.63;;;1.80;;
7661;SDS011;30314;48.184;11.510;2022-11-15T10:43:14;3.63;;;2.43;;
7661;SDS011;30314;48.184;11.510;2022-11-15T10:45:43;5.53;;;2.60;;
7661;SDS011;30314;48.184;11.510;2022-11-15T10:48:25;3.07;;;1.87;;
7661;SDS011;30314;48.184;11.510;2022-11-15T10:50:53;3.93;;;2.00;;
7661;SDS011;30314;48.184;11.510;2022-11-15T10:53:30;3.83;;;1.60;;
7661;SDS011;30314;48.184;11.510;2022-11-15T10:56:01;4.40;;;1.83;;
7661;SDS011;30314;48.184;11.510;2022-11-15T10:58:35;5.97;;;2.07;;
7661;SDS011;30314;48.184;11.510;2022-11-15T11:01:09;3.90;;;1.93;;
7661;SDS011;30314;48.184;11.510;2022-11-15T11:03:42;7.73;;;1.80;;
7661;SDS011;30314;48.184;11.510;2022-11-15T11:06:12;2.53;;;1.67;;
7661;SDS011;30314;48.184;11.510;2022-11-15T11:08:52;2.47;;;1.10;;
7661;SDS011;30314;48.184;11.510;2022-11-15T11:11:22;3.53;;;1.57;;
7661;SDS011;30314;48.184;11.510;2022-11-15T11:13:51;2.07;;;1.30;;
7661;SDS011;30314;48.184;11.510;2022-11-15T11:16:22;7.53;;;1.50;;
7661;SDS011;30314;48.184;11.510;2022-11-15T11:19:08;4.00;;;1.20;;
7661;SDS011;30314;48.184;11.510;2022-11-15T11:21:46;1.67;;;0.80;;
7661;SDS011;30314;48.184;11.510;2022-11-15T11:24:21;16.17;;;1.33;;
7661;SDS011;30314;48.184;11.510;2022-11-15T11:26:59;17.53;;;2.10;;
7661;SDS011;30314;48.184;11.510;2022-11-15T11:29:44;3.80;;;1.10;;
7661;SDS011;30314;48.184;11.510;2022-11-15T11:32:30;5.93;;;1.23;;
7661;SDS011;30314;48.184;11.510;2022-11-15T11:35:22;3.70;;;1.97;;
7661;SDS011;30314;48.184;11.510;2022-11-15T11:37:54;2.23;;;1.20;;
7661;SDS011;30314;48.184;11.510;2022-11-15T11:40:30;6.00;;;1.50;;
7661;SDS011;30314;48.184;11.510;2022-11-15T11:43:03;9.43;;;1.00;;
7661;SDS011;30314;48.184;11.510;2022-11-15T11:46:02;6.23;;;1.37;;
7661;SDS011;30314;48.184;11.510;2022-11-15T11:48:41;3.10;;;1.50;;
7661;SDS011;30314;48.184;11.510;2022-11-15T11:51:14;8.67;;;2.40;;
7661;SDS011;30314;48.184;11.510;2022-11-15T11:53:47;2.40;;;1.40;;
7661;SDS011;30314;48.184;11.510;2022-11-15T11:56:24;2.47;;;1.63;;
7661;SDS011;30314;48.184;11.510;2022-11-15T11:58:55;2.37;;;1.03;;
7661;SDS011;30314;48.184;11.510;2022-11-15T12:01:28;2.03;;;1.30;;
7661;SDS011;30314;48.184;11.510;2022-11-15T12:04:03;3.10;;;1.27;;
7661;SDS011;30314;48.184;11.510;2022-11-15T12:06:38;2.50;;;1.40;;
7661;SDS011;30314;48.184;11.510;2022-11-15T12:09:14;3.23;;;1.40;;
7661;SDS011;30314;48.184;11.510;2022-11-15T12:11:50;2.93;;;1.33;;
7661;SDS011;30314;48.184;11.510;2022-11-15T12:14:28;2.67;;;1.43;;
7661;SDS011;30314;48.184;11.510;2022-11-15T12:16:59;2.03;;;1.20;;
7661;SDS011;30314;48.184;11.510;2022-11-15T12:19:28;1.63;;;1.30;;
7661;SDS011;30314;48.184;11.510;2022-11-15T12:21:59;7.80;;;1.80;;
7661;SDS011;30314;48.184;11.510;2022-11-15T12:24:32;2.83;;;1.33;;
7661;SDS011;30314;48.184;11.510;2022-11-15T12:27:11;2.20;;;1.43;;
7661;SDS011;30314;48.184;11.510;2022-11-15T12:29:52;4.13;;;1.83;;
7661;SDS011;30314;48.184;11.510;2022-11-15T12:32:25;2.80;;;1.07;;
7661;SDS011;30314;48.184;11.510;2022-11-15T12:34:56;3.30;;;1.27;;
7661;SDS011;30314;48.184;11.510;2022-11-15T12:37:46;1.87;;;1.00;;
7661;SDS011;30314;48.184;11.510;2022-11-15T12:40:20;1.50;;;1.10;;
7661;SDS011;30314;48.184;11.510;2022-11-15T12:42:59;3.00;;;1.40;;
7661;SDS011;30314;48.184;11.510;2022-11-15T12:45:29;1.43;;;1.20;;
7661;SDS011;30314;48.184;11.510;2022-11-15T12:51:03;2.90;;;1.67;;
7661;SDS011;30314;48.184;11.510;2022-11-15T12:53:32;2.37;;;1.20;;
7661;SDS011;30314;48.184;11.510;2022-11-15T12:56:18;2.37;;;1.37;;
7661;SDS011;30314;48.184;11.510;2022-11-15T12:58:51;2.13;;;1.23;;
7661;SDS011;30314;48.184;11.510;2022-11-15T13:04:28;3.73;;;1.47;;
7661;SDS011;30314;48.184;11.510;2022-11-15T13:06:59;3.83;;;1.60;;
7661;SDS011;30314;48.184;11.510;2022-11-15T13:15:37;7.60;;;1.83;;
7661;SDS011;30314;48.184;11.510;2022-11-15T13:18:33;8.93;;;1.83;;
7661;SDS011;30314;48.184;11.510;2022-11-15T13:21:04;5.90;;;1.80;;
7661;SDS011;30314;48.184;11.510;2022-11-15T13:24:02;4.30;;;2.00;;
7661;SDS011;30314;48.184;11.510;2022-11-15T13:26:31;7.30;;;2.33;;
7661;SDS011;30314;48.184;11.510;2022-11-15T13:28:59;5.23;;;2.20;;
7661;SDS011;30314;48.184;11.510;2022-11-15T13:31:35;2.60;;;1.90;;
7661;SDS011;30314;48.184;11.510;2022-11-15T13:34:14;3.30;;;2.00;;
7661;SDS011;30314;48.184;11.510;2022-11-15T13:37:12;2.80;;;1.80;;
7661;SDS011;30314;48.184;11.510;2022-11-15T13:40:09;2.90;;;2.23;;
7661;SDS011;30314;48.184;11.510;2022-11-15T13:42:45;2.50;;;1.90;;
7661;SDS011;30314;48.184;11.510;2022-11-15T13:45:13;2.37;;;1.70;;
7661;SDS011;30314;48.184;11.510;2022-11-15T13:47:44;3.50;;;2.47;;
7661;SDS011;30314;48.184;11.510;2022-11-15T13:50:18;6.27;;;3.07;;
7661;SDS011;30314;48.184;11.510;2022-11-15T13:52:49;3.50;;;2.13;;
7661;SDS011;30314;48.184;11.510;2022-11-15T13:55:17;2.53;;;2.10;;
7661;SDS011;30314;48.184;11.510;2022-11-15T13:57:48;4.27;;;2.33;;
7661;SDS011;30314;48.184;11.510;2022-11-15T14:00:25;8.47;;;3.47;;
7661;SDS011;30314;48.184;11.510;2022-11-15T14:02:58;3.67;;;2.70;;
7661;SDS011;30314;48.184;11.510;2022-11-15T14:05:34;3.97;;;2.23;;
7661;SDS011;30314;48.184;11.510;2022-11-15T14:08:04;5.30;;;2.17;;
7661;SDS011;30314;48.184;11.510;2022-11-15T14:11:05;3.33;;;2.60;;
7661;SDS011;30314;48.184;11.510;2022-11-15T14:13:39;3.73;;;2.00;;
7661;SDS011;30314;48.184;11.510;2022-11-15T14:16:17;4.20;;;2.50;;
7661;SDS011;30314;48.184;11.510;2022-11-15T14:18:48;4.10;;;2.67;;
7661;SDS011;30314;48.184;11.510;2022-11-15T14:21:18;6.40;;;3.60;;
7661;SDS011;30314;48.184;11.510;2022-11-15T14:23:46;3.53;;;2.90;;
7661;SDS011;30314;48.184;11.510;2022-11-15T14:31:49;5.93;;;3.30;;
7661;SDS011;30314;48.184;11.510;2022-11-15T14:34:19;6.80;;;3.87;;
7661;SDS011;30314;48.184;11.510;2022-11-15T14:36:48;8.27;;;3.53;;
7661;SDS011;30314;48.184;11.510;2022-11-15T14:39:16;5.30;;;4.10;;
7661;SDS011;30314;48.184;11.510;2022-11-15T14:41:43;4.20;;;3.50;;
7661;SDS011;30314;48.184;11.510;2022-11-15T14:44:11;6.87;;;3.97;;
7661;SDS011;30314;48.184;11.510;2022-11-15T14:46:44;9.87;;;3.60;;
7661;SDS011;30314;48.184;11.510;2022-11-15T14:49:12;4.90;;;3.60;;
7661;SDS011;30314;48.184;11.510;2022-11-15T14:51:42;4.87;;;3.83;;
7661;SDS011;30314;48.184;11.510;2022-11-15T14:54:10;5.13;;;3.70;;
7661;SDS011;30314;48.184;11.510;2022-11-15T14:56:38;8.30;;;4.60;;
7661;SDS011;30314;48.184;11.510;2022-11-15T14:59:05;17.37;;;11.00;;
7661;SDS011;30314;48.184;11.510;2022-11-15T15:01:33;12.00;;;8.30;;
7661;SDS011;30314;48.184;11.510;2022-11-15T15:04:01;18.30;;;9.87;;
7661;SDS011;30314;48.184;11.510;2022-11-15T15:06:28;20.10;;;10.90;;
7661;SDS011;30314;48.184;11.510;2022-11-15T15:08:58;13.07;;;7.93;;
7661;SDS011;30314;48.184;11.510;2022-11-15T15:11:26;17.77;;;10.50;;
7661;SDS011;30314;48.184;11.510;2022-11-15T15:13:57;16.60;;;9.00;;
7661;SDS011;30314;48.184;11.510;2022-11-15T15:16:27;11.47;;;7.07;;
7661;SDS011;30314;48.184;11.510;2022-11-15T15:18:55;14.87;;;6.27;;
7661;SDS011;30314;48.184;11.510;2022-11-15T15:21:23;16.43;;;6.53;;
7661;SDS011;30314;48.184;11.510;2022-11-15T15:24:02;9.87;;;5.70;;
7661;SDS011;30314;48.184;11.510;2022-11-15T15:26:29;8.00;;;5.40;;
7661;SDS011;30314;48.184;11.510;2022-11-15T15:29:00;12.07;;;6.50;;
7661;SDS011;30314;48.184;11.510;2022-11-15T15:31:27;8.80;;;5.30;;
7661;SDS011;30314;48.184;11.510;2022-11-15T15:33:55;20.97;;;11.43;;
7661;SDS011;30314;48.184;11.510;2022-11-15T15:36:23;35.53;;;11.93;;
7661;SDS011;30314;48.184;11.510;2022-11-15T15:38:51;21.20;;;10.70;;
7661;SDS011;30314;48.184;11.510;2022-11-15T15:41:21;19.27;;;10.03;;
7661;SDS011;30314;48.184;11.510;2022-11-15T15:43:49;25.23;;;12.23;;
7661;SDS011;30314;48.184;11.510;2022-11-15T15:46:18;15.93;;;8.60;;
7661;SDS011;30314;48.184;11.510;2022-11-15T15:48:46;14.13;;;7.63;;
7661;SDS011;30314;48.184;11.510;2022-11-15T15:51:14;13.23;;;7.53;;
7661;SDS011;30314;48.184;11.510;2022-11-15T15:53:47;10.30;;;6.73;;
7661;SDS011;30314;48.184;11.510;2022-11-15T15:56:16;11.90;;;7.40;;
7661;SDS011;30314;48.184;11.510;2022-11-15T15:58:47;16.90;;;9.47;;
7661;SDS011;30314;48.184;11.510;2022-11-15T16:01:15;18.50;;;10.77;;
7661;SDS011;30314;48.184;11.510;2022-11-15T16:03:43;24.37;;;9.77;;
7661;SDS011;30314;48.184;11.510;2022-11-15T16:06:25;19.97;;;10.60;;
7661;SDS011;30314;48.184;11.510;2022-11-15T16:09:02;22.13;;;10.73;;
7661;SDS011;30314;48.184;11.510;2022-11-15T16:11:46;19.40;;;10.77;;
7661;SDS011;30314;48.184;11.510;2022-11-15T16:14:19;22.20;;;11.30;;
7661;SDS011;30314;48.184;11.510;2022-11-15T16:16:46;21.20;;;10.47;;
7661;SDS011;30314;48.184;11.510;2022-11-15T16:19:14;14.53;;;9.53;;
7661;SDS011;30314;48.184;11.510;2022-11-15T16:21:42;16.80;;;10.13;;
7661;SDS011;30314;48.184;11.510;2022-11-15T16:24:10;18.67;;;9.57;;
7661;SDS011;30314;48.184;11.510;2022-11-15T16:26:37;17.80;;;9.97;;
7661;SDS011;30314;48.184;11.510;2022-11-15T16:29:05;15.90;;;9.27;;
7661;SDS011;30314;48.184;11.510;2022-11-15T16:31:36;20.43;;;12.93;;
7661;SDS011;30314;48.184;11.510;2022-11-15T16:34:04;21.27;;;12.40;;
7661;SDS011;30314;48.184;11.510;2022-11-15T16:36:33;19.00;;;11.10;;